sensor_id;sensor_type;location;lat;lon;timestamp;pressure;altitude;pressure_sealevel;temperature;humidity
45467;BME280;31212;49.734;8.490;2023-03-03T00:00:28;100259.34;;;1.63;57.60
45467;BME280;31212;49.734;8.490;2023-03-03T00:02:57;100268.03;;;1.68;57.40
45467;BME280;31212;49.734;8.490;2023-03-03T00:05:26;100278.19;;;1.65;58.07
45467;BME280;31212;49.734;8.490;2023-03-03T00:07:54;100311.09;;;1.56;58.76
45467;BME280;31212;49.734;8.490;2023-03-03T00:10:21;100329.59;;;1.49;58.92
45467;BME280;31212;49.734;8.490;2023-03-03T00:12:48;100337.59;;;1.36;59.22
45467;BME280;31212;49.734;8.490;2023-03-03T00:15:17;100359.63;;;1.32;59.76
45467;BME280;31212;49.734;8.490;2023-03-03T00:17:44;100372.19;;;1.26;59.75
45467;BME280;31212;49.734;8.490;2023-03-03T00:20:31;100411.75;;;1.14;60.58
45467;BME280;31212;49.734;8.490;2023-03-03T00:23:12;100427.72;;;1.09;61.21
45467;BME280;31212;49.734;8.490;2023-03-03T00:25:42;100445.44;;;1.04;61.08
45467;BME280;31212;49.734;8.490;2023-03-03T00:28:21;100453.78;;;1.00;61.63
45467;BME280;31212;49.734;8.490;2023-03-03T00:30:48;100468.63;;;1.09;61.62
45467;BME280;31212;49.734;8.490;2023-03-03T00:33:23;100467.78;;;1.08;61.34
45467;BME280;31212;49.734;8.490;2023-03-03T00:35:53;100477.84;;;1.05;61.77
45467;BME280;31212;49.734;8.490;2023-03-03T00:38:21;100496.47;;;1.03;61.63
45467;BME280;31212;49.734;8.490;2023-03-03T00:40:48;100493.69;;;0.96;61.85
45467;BME280;31212;49.734;8.490;2023-03-03T00:43:18;100508.81;;;0.92;62.35
45467;BME280;31212;49.734;8.490;2023-03-03T00:45:46;100528.88;;;0.82;62.45
45467;BME280;31212;49.734;8.490;2023-03-03T00:48:22;100566.19;;;0.79;63.32
45467;BME280;31212;49.734;8.490;2023-03-03T00:50:50;100588.38;;;0.80;63.60
45467;BME280;31212;49.734;8.490;2023-03-03T00:53:18;100589.25;;;0.80;63.45
45467;BME280;31212;49.734;8.490;2023-03-03T00:55:49;100600.63;;;0.87;63.23
45467;BME280;31212;49.734;8.490;2023-03-03T00:58:16;100597.03;;;0.83;63.54
45467;BME280;31212;49.734;8.490;2023-03-03T01:00:47;100611.59;;;0.84;63.79
45467;BME280;31212;49.734;8.490;2023-03-03T01:03:18;100619.38;;;0.88;63.64
45467;BME280;31212;49.734;8.490;2023-03-03T01:05:46;100618.13;;;0.97;63.61
45467;BME280;31212;49.734;8.490;2023-03-03T01:08:13;100609.06;;;1.04;63.28
45467;BME280;31212;49.734;8.490;2023-03-03T01:10:42;100602.94;;;1.00;63.46
45467;BME280;31212;49.734;8.490;2023-03-03T01:13:10;100613.88;;;0.98;63.50
45467;BME280;31212;49.734;8.490;2023-03-03T01:15:38;100620.63;;;0.96;63.85
45467;BME280;31212;49.734;8.490;2023-03-03T01:18:05;100627.28;;;0.92;63.85
45467;BME280;31212;49.734;8.490;2023-03-03T01:20:32;100625.59;;;0.93;64.17
45467;BME280;31212;49.734;8.490;2023-03-03T01:22:58;100621.19;;;0.90;64.23
45467;BME280;31212;49.734;8.490;2023-03-03T01:25:25;100633.06;;;0.88;64.24
45467;BME280;31212;49.734;8.490;2023-03-03T01:27:52;100640.44;;;0.82;64.49
45467;BME280;31212;49.734;8.490;2023-03-03T01:30:20;100644.69;;;0.81;64.76
45467;BME280;31212;49.734;8.490;2023-03-03T01:32:46;100641.88;;;0.77;64.59
45467;BME280;31212;49.734;8.490;2023-03-03T01:35:13;100643.44;;;0.73;64.81
45467;BME280;31212;49.734;8.490;2023-03-03T01:37:39;100640.66;;;0.69;64.91
45467;BME280;31212;49.734;8.490;2023-03-03T01:40:11;100639.78;;;0.68;65.02
45467;BME280;31212;49.734;8.490;2023-03-03T01:42:38;100646.34;;;0.63;65.22
45467;BME280;31212;49.734;8.490;2023-03-03T01:45:13;100648.13;;;0.64;65.54
45467;BME280;31212;49.734;8.490;2023-03-03T01:47:44;100654.25;;;0.68;65.45
45467;BME280;31212;49.734;8.490;2023-03-03T01:50:14;100651.47;;;0.63;65.56
45467;BME280;31212;49.734;8.490;2023-03-03T01:52:43;100653.75;;;0.57;65.55
45467;BME280;31212;49.734;8.490;2023-03-03T01:55:16;100661.56;;;0.60;65.86
45467;BME280;31212;49.734;8.490;2023-03-03T01:57:47;100656.78;;;0.49;66.18
45467;BME280;31212;49.734;8.490;2023-03-03T02:00:17;100666.94;;;0.48;66.10
45467;BME280;31212;49.734;8.490;2023-03-03T02:02:46;100673.50;;;0.43;66.52
45467;BME280;31212;49.734;8.490;2023-03-03T02:05:13;100680.31;;;0.42;66.64
45467;BME280;31212;49.734;8.490;2023-03-03T02:07:40;100698.97;;;0.41;66.92
45467;BME280;31212;49.734;8.490;2023-03-03T02:10:10;100702.50;;;0.43;67.13
45467;BME280;31212;49.734;8.490;2023-03-03T02:12:40;100692.19;;;0.42;67.25
45467;BME280;31212;49.734;8.490;2023-03-03T02:15:15;100693.81;;;0.40;67.39
45467;BME280;31212;49.734;8.490;2023-03-03T02:17:44;100701.06;;;0.32;67.58
45467;BME280;31212;49.734;8.490;2023-03-03T02:20:16;100709.53;;;0.31;67.69
45467;BME280;31212;49.734;8.490;2023-03-03T02:22:50;100705.91;;;0.26;67.77
45467;BME280;31212;49.734;8.490;2023-03-03T02:25:26;100713.31;;;0.21;68.13
45467;BME280;31212;49.734;8.490;2023-03-03T02:27:56;100720.97;;;0.21;68.45
45467;BME280;31212;49.734;8.490;2023-03-03T02:30:23;100737.66;;;0.14;68.68
45467;BME280;31212;49.734;8.490;2023-03-03T02:32:50;100733.19;;;0.10;68.96
45467;BME280;31212;49.734;8.490;2023-03-03T02:35:31;100738.22;;;0.09;69.07
45467;BME280;31212;49.734;8.490;2023-03-03T02:38:03;100738.31;;;0.10;69.28
45467;BME280;31212;49.734;8.490;2023-03-03T02:40:36;100737.66;;;0.14;69.12
45467;BME280;31212;49.734;8.490;2023-03-03T02:43:07;100736.78;;;0.14;69.28
45467;BME280;31212;49.734;8.490;2023-03-03T02:45:41;100745.31;;;0.14;69.78
45467;BME280;31212;49.734;8.490;2023-03-03T02:48:08;100743.19;;;0.06;69.87
45467;BME280;31212;49.734;8.490;2023-03-03T02:50:34;100748.28;;;0.06;69.87
45467;BME280;31212;49.734;8.490;2023-03-03T02:53:00;100751.25;;;-0.03;70.08
45467;BME280;31212;49.734;8.490;2023-03-03T02:55:27;100758.09;;;-0.02;70.37
45467;BME280;31212;49.734;8.490;2023-03-03T02:57:53;100758.75;;;-0.06;70.73
45467;BME280;31212;49.734;8.490;2023-03-03T03:00:21;100763.59;;;-0.11;70.70
45467;BME280;31212;49.734;8.490;2023-03-03T03:02:48;100767.97;;;-0.08;71.13
45467;BME280;31212;49.734;8.490;2023-03-03T03:05:14;100768.69;;;-0.11;70.95
45467;BME280;31212;49.734;8.490;2023-03-03T03:07:41;100767.59;;;-0.16;71.40
45467;BME280;31212;49.734;8.490;2023-03-03T03:10:08;100781.38;;;-0.12;71.62
45467;BME280;31212;49.734;8.490;2023-03-03T03:12:37;100777.97;;;-0.13;71.75
45467;BME280;31212;49.734;8.490;2023-03-03T03:15:05;100790.72;;;-0.13;72.13
45467;BME280;31212;49.734;8.490;2023-03-03T03:17:36;100801.16;;;-0.08;71.85
45467;BME280;31212;49.734;8.490;2023-03-03T03:20:03;100790.00;;;-0.10;71.94
45467;BME280;31212;49.734;8.490;2023-03-03T03:22:31;100805.56;;;-0.06;72.18
45467;BME280;31212;49.734;8.490;2023-03-03T03:24:57;100803.06;;;-0.04;72.36
45467;BME280;31212;49.734;8.490;2023-03-03T03:27:24;100804.75;;;-0.05;72.41
45467;BME280;31212;49.734;8.490;2023-03-03T03:29:51;100805.09;;;0.02;72.58
45467;BME280;31212;49.734;8.490;2023-03-03T03:32:18;100804.19;;;0.01;72.67
45467;BME280;31212;49.734;8.490;2023-03-03T03:34:46;100811.06;;;0.02;72.84
45467;BME280;31212;49.734;8.490;2023-03-03T03:37:13;100811.41;;;0.08;72.97
45467;BME280;31212;49.734;8.490;2023-03-03T03:39:42;100797.66;;;0.06;73.08
45467;BME280;31212;49.734;8.490;2023-03-03T03:42:09;100802.53;;;0.02;72.95
45467;BME280;31212;49.734;8.490;2023-03-03T03:44:36;100807.56;;;0.00;73.10
45467;BME280;31212;49.734;8.490;2023-03-03T03:47:02;100813.28;;;-0.04;73.13
45467;BME280;31212;49.734;8.490;2023-03-03T03:49:29;100811.28;;;-0.10;73.67
45467;BME280;31212;49.734;8.490;2023-03-03T03:51:58;100828.38;;;-0.09;73.61
45467;BME280;31212;49.734;8.490;2023-03-03T03:54:28;100826.59;;;-0.10;73.95
45467;BME280;31212;49.734;8.490;2023-03-03T03:56:56;100828.13;;;-0.13;74.08
45467;BME280;31212;49.734;8.490;2023-03-03T03:59:22;100828.38;;;-0.09;74.39
45467;BME280;31212;49.734;8.490;2023-03-03T04:01:50;100832.75;;;-0.06;74.47
45467;BME280;31212;49.734;8.490;2023-03-03T04:04:18;100840.56;;;-0.03;74.48
45467;BME280;31212;49.734;8.490;2023-03-03T04:06:44;100838.09;;;-0.02;74.92
45467;BME280;31212;49.734;8.490;2023-03-03T04:09:14;100845.69;;;-0.03;74.84
45467;BME280;31212;49.734;8.490;2023-03-03T04:11:41;100844.81;;;-0.04;74.84
45467;BME280;31212;49.734;8.490;2023-03-03T04:14:08;100846.66;;;-0.01;75.14
45467;BME280;31212;49.734;8.490;2023-03-03T04:16:35;100841.91;;;-0.10;75.18
45467;BME280;31212;49.734;8.490;2023-03-03T04:19:01;100852.06;;;-0.11;75.29
45467;BME280;31212;49.734;8.490;2023-03-03T04:21:30;100843.91;;;-0.21;75.42
45467;BME280;31212;49.734;8.490;2023-03-03T04:23:58;100862.53;;;-0.22;75.79
45467;BME280;31212;49.734;8.490;2023-03-03T04:26:28;100868.69;;;-0.18;76.07
45467;BME280;31212;49.734;8.490;2023-03-03T04:28:55;100873.56;;;-0.23;76.18
45467;BME280;31212;49.734;8.490;2023-03-03T04:31:23;100881.66;;;-0.30;76.52
45467;BME280;31212;49.734;8.490;2023-03-03T04:33:50;100882.38;;;-0.32;76.62
45467;BME280;31212;49.734;8.490;2023-03-03T04:36:18;100900.34;;;-0.31;76.77
45467;BME280;31212;49.734;8.490;2023-03-03T04:38:44;100894.09;;;-0.36;76.95
45467;BME280;31212;49.734;8.490;2023-03-03T04:41:12;100897.38;;;-0.39;77.11
45467;BME280;31212;49.734;8.490;2023-03-03T04:43:41;100894.38;;;-0.46;77.44
45467;BME280;31212;49.734;8.490;2023-03-03T04:46:10;100901.31;;;-0.44;77.37
45467;BME280;31212;49.734;8.490;2023-03-03T04:48:37;100900.25;;;-0.47;77.52
45467;BME280;31212;49.734;8.490;2023-03-03T04:51:04;100902.50;;;-0.54;77.60
45467;BME280;31212;49.734;8.490;2023-03-03T04:53:32;100913.31;;;-0.58;78.11
45467;BME280;31212;49.734;8.490;2023-03-03T04:56:00;100925.25;;;-0.57;78.68
45467;BME280;31212;49.734;8.490;2023-03-03T04:58:29;100932.41;;;-0.66;78.94
45467;BME280;31212;49.734;8.490;2023-03-03T05:00:57;100944.53;;;-0.62;79.33
45467;BME280;31212;49.734;8.490;2023-03-03T05:03:26;100948.94;;;-0.59;79.51
45467;BME280;31212;49.734;8.490;2023-03-03T05:05:53;100950.50;;;-0.61;79.66
45467;BME280;31212;49.734;8.490;2023-03-03T05:08:20;100947.09;;;-0.62;79.87
45467;BME280;31212;49.734;8.490;2023-03-03T05:10:50;100952.09;;;-0.63;80.22
45467;BME280;31212;49.734;8.490;2023-03-03T05:13:17;100952.97;;;-0.63;80.29
45467;BME280;31212;49.734;8.490;2023-03-03T05:15:48;100955.53;;;-0.63;80.31
45467;BME280;31212;49.734;8.490;2023-03-03T05:18:17;100959.63;;;-0.65;80.30
45467;BME280;31212;49.734;8.490;2023-03-03T05:20:43;100969.41;;;-0.73;80.92
45467;BME280;31212;49.734;8.490;2023-03-03T05:23:10;100963.25;;;-0.76;81.23
45467;BME280;31212;49.734;8.490;2023-03-03T05:25:36;100963.59;;;-0.85;81.24
45467;BME280;31212;49.734;8.490;2023-03-03T05:28:03;100967.81;;;-0.86;81.48
45467;BME280;31212;49.734;8.490;2023-03-03T05:30:29;100958.94;;;-0.92;81.82
45467;BME280;31212;49.734;8.490;2023-03-03T05:32:56;100964.56;;;-0.83;82.36
45467;BME280;31212;49.734;8.490;2023-03-03T05:35:25;100960.16;;;-0.86;81.91
45467;BME280;31212;49.734;8.490;2023-03-03T05:37:51;100957.53;;;-0.87;82.58
45467;BME280;31212;49.734;8.490;2023-03-03T05:40:18;100953.91;;;-0.91;82.82
45467;BME280;31212;49.734;8.490;2023-03-03T05:42:44;100953.59;;;-0.97;82.59
45467;BME280;31212;49.734;8.490;2023-03-03T05:45:11;100958.47;;;-1.00;82.90
45467;BME280;31212;49.734;8.490;2023-03-03T05:47:38;100955.84;;;-1.02;82.81
45467;BME280;31212;49.734;8.490;2023-03-03T05:50:05;100963.31;;;-1.05;83.41
45467;BME280;31212;49.734;8.490;2023-03-03T05:52:33;100959.00;;;-1.06;83.54
45467;BME280;31212;49.734;8.490;2023-03-03T05:54:59;100962.25;;;-1.08;83.75
45467;BME280;31212;49.734;8.490;2023-03-03T05:57:26;100971.56;;;-1.09;84.37
45467;BME280;31212;49.734;8.490;2023-03-03T05:59:52;100979.22;;;-1.09;84.18
45467;BME280;31212;49.734;8.490;2023-03-03T06:02:19;100982.63;;;-1.08;84.56
45467;BME280;31212;49.734;8.490;2023-03-03T06:04:46;100985.38;;;-1.05;84.53
45467;BME280;31212;49.734;8.490;2023-03-03T06:07:12;100987.59;;;-0.96;84.62
45467;BME280;31212;49.734;8.490;2023-03-03T06:09:40;100990.03;;;-0.98;85.06
45467;BME280;31212;49.734;8.490;2023-03-03T06:12:07;100998.47;;;-0.99;85.05
45467;BME280;31212;49.734;8.490;2023-03-03T06:14:33;100992.69;;;-0.96;85.19
45467;BME280;31212;49.734;8.490;2023-03-03T06:16:59;100988.66;;;-0.93;85.18
45467;BME280;31212;49.734;8.490;2023-03-03T06:19:26;100999.28;;;-0.85;85.18
45467;BME280;31212;49.734;8.490;2023-03-03T06:21:53;101002.19;;;-0.79;84.80
45467;BME280;31212;49.734;8.490;2023-03-03T06:24:19;101004.13;;;-0.75;85.11
45467;BME280;31212;49.734;8.490;2023-03-03T06:26:50;101008.38;;;-0.75;85.00
45467;BME280;31212;49.734;8.490;2023-03-03T06:29:17;101017.16;;;-0.70;85.40
45467;BME280;31212;49.734;8.490;2023-03-03T06:31:43;101025.94;;;-0.65;85.47
45467;BME280;31212;49.734;8.490;2023-03-03T06:34:10;101019.88;;;-0.67;85.20
45467;BME280;31212;49.734;8.490;2023-03-03T06:36:36;101028.25;;;-0.55;85.15
45467;BME280;31212;49.734;8.490;2023-03-03T06:39:03;101021.56;;;-0.53;85.15
45467;BME280;31212;49.734;8.490;2023-03-03T06:41:29;101011.78;;;-0.45;85.32
45467;BME280;31212;49.734;8.490;2023-03-03T06:43:57;101008.53;;;-0.42;84.72
45467;BME280;31212;49.734;8.490;2023-03-03T06:46:24;101001.94;;;-0.39;84.70
45467;BME280;31212;49.734;8.490;2023-03-03T06:48:51;101000.53;;;-0.33;84.79
45467;BME280;31212;49.734;8.490;2023-03-03T06:51:22;100999.66;;;-0.34;84.47
45467;BME280;31212;49.734;8.490;2023-03-03T06:53:53;101007.66;;;-0.13;84.39
45467;BME280;31212;49.734;8.490;2023-03-03T06:56:20;100995.13;;;-0.08;84.01
45467;BME280;31212;49.734;8.490;2023-03-03T06:58:47;100986.41;;;0.03;83.79
45467;BME280;31212;49.734;8.490;2023-03-03T07:01:16;100992.81;;;0.11;83.43
45467;BME280;31212;49.734;8.490;2023-03-03T07:03:43;100988.84;;;0.16;83.20
45467;BME280;31212;49.734;8.490;2023-03-03T07:06:17;100980.34;;;0.17;82.99
45467;BME280;31212;49.734;8.490;2023-03-03T07:08:45;100980.84;;;0.27;82.85
45467;BME280;31212;49.734;8.490;2023-03-03T07:11:15;100987.81;;;0.29;82.62
45467;BME280;31212;49.734;8.490;2023-03-03T07:13:46;100976.19;;;0.35;82.44
45467;BME280;31212;49.734;8.490;2023-03-03T07:16:13;100972.75;;;0.50;82.17
45467;BME280;31212;49.734;8.490;2023-03-03T07:18:47;100972.06;;;0.70;81.80
45467;BME280;31212;49.734;8.490;2023-03-03T07:21:18;100966.00;;;1.18;80.74
45467;BME280;31212;49.734;8.490;2023-03-03T07:23:47;100927.25;;;2.19;78.84
45467;BME280;31212;49.734;8.490;2023-03-03T07:26:16;100842.63;;;2.97;76.09
45467;BME280;31212;49.734;8.490;2023-03-03T07:28:51;100757.22;;;3.68;73.55
45467;BME280;31212;49.734;8.490;2023-03-03T07:31:30;100608.34;;;3.95;70.10
45467;BME280;31212;49.734;8.490;2023-03-03T07:34:01;100554.44;;;4.51;68.74
45467;BME280;31212;49.734;8.490;2023-03-03T07:36:34;100474.69;;;4.21;67.19
45467;BME280;31212;49.734;8.490;2023-03-03T07:39:03;100451.13;;;4.65;66.58
45467;BME280;31212;49.734;8.490;2023-03-03T07:41:34;100434.84;;;4.98;65.60
45467;BME280;31212;49.734;8.490;2023-03-03T07:44:04;100431.16;;;5.20;64.64
45467;BME280;31212;49.734;8.490;2023-03-03T07:46:35;100387.34;;;5.93;63.53
45467;BME280;31212;49.734;8.490;2023-03-03T07:49:19;100325.91;;;6.56;61.60
45467;BME280;31212;49.734;8.490;2023-03-03T07:51:47;100270.25;;;5.79;61.06
45467;BME280;31212;49.734;8.490;2023-03-03T07:54:21;100322.97;;;5.53;61.82
45467;BME280;31212;49.734;8.490;2023-03-03T07:56:54;100379.50;;;4.80;63.16
45467;BME280;31212;49.734;8.490;2023-03-03T07:59:24;100456.00;;;5.19;63.48
45467;BME280;31212;49.734;8.490;2023-03-03T08:01:53;100460.56;;;4.64;64.19
45467;BME280;31212;49.734;8.490;2023-03-03T08:04:23;100580.75;;;5.02;65.68
45467;BME280;31212;49.734;8.490;2023-03-03T08:06:54;100551.63;;;4.44;65.51
45467;BME280;31212;49.734;8.490;2023-03-03T08:09:41;100511.28;;;5.34;64.15
45467;BME280;31212;49.734;8.490;2023-03-03T08:12:18;100416.03;;;4.67;63.17
45467;BME280;31212;49.734;8.490;2023-03-03T08:14:50;100500.13;;;5.01;63.91
45467;BME280;31212;49.734;8.490;2023-03-03T08:17:20;100524.22;;;3.61;65.79
45467;BME280;31212;49.734;8.490;2023-03-03T08:19:49;100594.22;;;4.35;66.14
45467;BME280;31212;49.734;8.490;2023-03-03T08:22:17;100578.59;;;4.02;66.24
45467;BME280;31212;49.734;8.490;2023-03-03T08:24:44;100612.00;;;4.02;66.67
45467;BME280;31212;49.734;8.490;2023-03-03T08:27:10;100638.31;;;4.20;66.96
45467;BME280;31212;49.734;8.490;2023-03-03T08:29:37;100624.41;;;4.68;66.11
45467;BME280;31212;49.734;8.490;2023-03-03T08:32:04;100524.28;;;5.38;64.04
45467;BME280;31212;49.734;8.490;2023-03-03T08:34:30;100455.03;;;6.22;62.34
45467;BME280;31212;49.734;8.490;2023-03-03T08:36:58;100370.09;;;5.14;61.76
45467;BME280;31212;49.734;8.490;2023-03-03T08:39:25;100535.91;;;4.06;65.19
45467;BME280;31212;49.734;8.490;2023-03-03T08:41:51;100630.91;;;4.30;66.52
45467;BME280;31212;49.734;8.490;2023-03-03T08:44:18;100648.94;;;5.16;65.83
45467;BME280;31212;49.734;8.490;2023-03-03T08:46:44;100553.34;;;5.68;64.12
45467;BME280;31212;49.734;8.490;2023-03-03T08:49:11;100475.06;;;6.34;62.60
45467;BME280;31212;49.734;8.490;2023-03-03T08:51:38;100458.44;;;6.21;62.36
45467;BME280;31212;49.734;8.490;2023-03-03T08:54:05;100399.88;;;7.06;60.80
45467;BME280;31212;49.734;8.490;2023-03-03T08:56:32;100214.72;;;6.96;58.01
45467;BME280;31212;49.734;8.490;2023-03-03T08:58:58;100261.81;;;7.39;57.62
45467;BME280;31212;49.734;8.490;2023-03-03T09:01:25;100286.03;;;7.49;58.24
45467;BME280;31212;49.734;8.490;2023-03-03T09:03:52;100269.72;;;6.90;58.59
45467;BME280;31212;49.734;8.490;2023-03-03T09:06:18;100324.34;;;6.66;59.57
45467;BME280;31212;49.734;8.490;2023-03-03T09:08:44;100321.09;;;6.30;59.52
45467;BME280;31212;49.734;8.490;2023-03-03T09:11:13;100355.59;;;7.36;59.19
45467;BME280;31212;49.734;8.490;2023-03-03T09:13:39;100259.06;;;6.70;58.48
45467;BME280;31212;49.734;8.490;2023-03-03T09:16:11;100283.09;;;7.22;57.53
45467;BME280;31212;49.734;8.490;2023-03-03T09:18:39;100265.28;;;6.32;59.01
45467;BME280;31212;49.734;8.490;2023-03-03T09:21:19;100367.13;;;6.10;60.02
45467;BME280;31212;49.734;8.490;2023-03-03T09:23:49;100402.31;;;6.10;60.48
45467;BME280;31212;49.734;8.490;2023-03-03T09:26:27;100366.66;;;6.30;59.93
45467;BME280;31212;49.734;8.490;2023-03-03T09:28:59;100352.34;;;6.95;59.33
45467;BME280;31212;49.734;8.490;2023-03-03T09:31:37;100279.84;;;8.89;56.11
45467;BME280;31212;49.734;8.490;2023-03-03T09:34:17;100068.59;;;9.42;52.57
45467;BME280;31212;49.734;8.490;2023-03-03T09:36:44;100024.50;;;9.19;52.22
45467;BME280;31212;49.734;8.490;2023-03-03T09:39:16;100100.72;;;8.20;54.41
45467;BME280;31212;49.734;8.490;2023-03-03T09:45:01;100235.94;;;9.09;54.84
45467;BME280;31212;49.734;8.490;2023-03-03T09:50:34;100157.66;;;9.83;53.13
45467;BME280;31212;49.734;8.490;2023-03-03T09:53:15;100119.53;;;9.40;52.80
45467;BME280;31212;49.734;8.490;2023-03-03T09:55:49;100027.44;;;11.59;48.94
45467;BME280;31212;49.734;8.490;2023-03-03T09:58:30;99871.03;;;11.05;47.88
45467;BME280;31212;49.734;8.490;2023-03-03T10:01:12;100005.31;;;8.65;51.99
45467;BME280;31212;49.734;8.490;2023-03-03T10:03:54;100071.81;;;8.78;52.18
45467;BME280;31212;49.734;8.490;2023-03-03T10:06:27;100101.13;;;8.75;52.54
45467;BME280;31212;49.734;8.490;2023-03-03T10:09:04;100162.81;;;9.77;52.16
45467;BME280;31212;49.734;8.490;2023-03-03T10:11:37;100100.47;;;9.15;52.43
45467;BME280;31212;49.734;8.490;2023-03-03T10:14:29;100117.06;;;10.63;50.60
45467;BME280;31212;49.734;8.490;2023-03-03T10:17:13;100012.47;;;9.57;50.65
45467;BME280;31212;49.734;8.490;2023-03-03T10:19:52;99976.06;;;10.54;49.23
45467;BME280;31212;49.734;8.490;2023-03-03T10:22:27;100031.16;;;11.23;49.17
45467;BME280;31212;49.734;8.490;2023-03-03T10:25:02;99891.63;;;12.20;45.99
45467;BME280;31212;49.734;8.490;2023-03-03T10:27:42;99856.56;;;10.70;46.88
45467;BME280;31212;49.734;8.490;2023-03-03T10:30:16;99924.25;;;11.63;47.27
45467;BME280;31212;49.734;8.490;2023-03-03T10:32:53;99748.06;;;11.09;45.24
45467;BME280;31212;49.734;8.490;2023-03-03T10:38:22;99777.81;;;10.71;46.53
45467;BME280;31212;49.734;8.490;2023-03-03T10:40:57;99913.56;;;11.99;46.03
45467;BME280;31212;49.734;8.490;2023-03-03T10:43:37;99826.53;;;13.38;43.83
45467;BME280;31212;49.734;8.490;2023-03-03T10:46:27;99843.19;;;13.28;43.89
45467;BME280;31212;49.734;8.490;2023-03-03T10:49:18;99711.94;;;13.76;41.92
45467;BME280;31212;49.734;8.490;2023-03-03T10:52:03;99713.97;;;14.40;41.40
45467;BME280;31212;49.734;8.490;2023-03-03T10:54:49;99678.78;;;12.92;42.73
45467;BME280;31212;49.734;8.490;2023-03-03T10:57:23;99802.09;;;12.92;43.95
45467;BME280;31212;49.734;8.490;2023-03-03T11:00:02;99753.75;;;13.73;42.22
45467;BME280;31212;49.734;8.490;2023-03-03T11:02:37;99691.03;;;14.17;40.68
45467;BME280;31212;49.734;8.490;2023-03-03T11:05:27;99650.06;;;14.20;40.43
45467;BME280;31212;49.734;8.490;2023-03-03T11:07:56;99570.63;;;14.95;38.94
45467;BME280;31212;49.734;8.490;2023-03-03T11:10:35;99646.47;;;12.52;41.93
45467;BME280;31212;49.734;8.490;2023-03-03T11:13:10;99776.72;;;13.52;42.03
45467;BME280;31212;49.734;8.490;2023-03-03T11:15:45;99727.41;;;13.41;41.58
45467;BME280;31212;49.734;8.490;2023-03-03T11:18:24;99729.81;;;13.94;41.22
45467;BME280;31212;49.734;8.490;2023-03-03T11:21:03;99619.78;;;12.41;41.23
45467;BME280;31212;49.734;8.490;2023-03-03T11:23:51;99782.91;;;11.72;44.26
45467;BME280;31212;49.734;8.490;2023-03-03T11:26:29;99802.97;;;12.93;42.98
45467;BME280;31212;49.734;8.490;2023-03-03T11:29:08;99777.06;;;11.53;43.98
45467;BME280;31212;49.734;8.490;2023-03-03T11:31:42;99879.53;;;11.25;46.09
45467;BME280;31212;49.734;8.490;2023-03-03T11:34:20;99923.22;;;11.83;45.39
45467;BME280;31212;49.734;8.490;2023-03-03T11:36:54;99873.28;;;11.51;45.35
45467;BME280;31212;49.734;8.490;2023-03-03T11:39:24;99934.38;;;11.99;45.53
45467;BME280;31212;49.734;8.490;2023-03-03T11:42:00;99873.66;;;11.02;45.89
45467;BME280;31212;49.734;8.490;2023-03-03T11:44:32;99943.56;;;11.36;46.15
45467;BME280;31212;49.734;8.490;2023-03-03T11:47:04;99980.03;;;11.19;46.84
45467;BME280;31212;49.734;8.490;2023-03-03T11:49:36;99923.88;;;11.01;46.35
45467;BME280;31212;49.734;8.490;2023-03-03T11:52:18;100036.34;;;11.18;47.28
45467;BME280;31212;49.734;8.490;2023-03-03T11:54:51;99934.41;;;10.77;47.26
45467;BME280;31212;49.734;8.490;2023-03-03T11:57:23;100020.19;;;10.48;47.90
45467;BME280;31212;49.734;8.490;2023-03-03T12:00:02;100016.53;;;10.97;47.69
45467;BME280;31212;49.734;8.490;2023-03-03T12:05:44;99975.47;;;11.55;45.92
45467;BME280;31212;49.734;8.490;2023-03-03T12:11:06;99950.25;;;11.68;45.99
45467;BME280;31212;49.734;8.490;2023-03-03T12:13:49;99977.38;;;11.34;46.79
45467;BME280;31212;49.734;8.490;2023-03-03T12:16:27;99992.72;;;11.65;46.84
45467;BME280;31212;49.734;8.490;2023-03-03T12:19:08;99955.31;;;11.80;45.99
45467;BME280;31212;49.734;8.490;2023-03-03T12:21:49;99867.38;;;11.34;45.42
45467;BME280;31212;49.734;8.490;2023-03-03T12:24:30;99960.66;;;11.63;46.59
45467;BME280;31212;49.734;8.490;2023-03-03T12:27:09;99947.56;;;11.74;45.65
45467;BME280;31212;49.734;8.490;2023-03-03T12:29:40;99941.81;;;11.35;46.27
45467;BME280;31212;49.734;8.490;2023-03-03T12:32:19;99928.66;;;11.55;45.92
45467;BME280;31212;49.734;8.490;2023-03-03T12:34:51;99892.63;;;11.11;46.24
45467;BME280;31212;49.734;8.490;2023-03-03T12:37:40;99965.19;;;11.39;46.73
45467;BME280;31212;49.734;8.490;2023-03-03T12:40:16;99940.56;;;11.84;45.54
45467;BME280;31212;49.734;8.490;2023-03-03T12:42:56;99848.97;;;11.55;44.71
45467;BME280;31212;49.734;8.490;2023-03-03T12:45:35;99929.94;;;11.03;46.68
45467;BME280;31212;49.734;8.490;2023-03-03T12:48:07;99853.19;;;10.58;46.59
45467;BME280;31212;49.734;8.490;2023-03-03T12:50:42;99934.09;;;11.25;46.98
45467;BME280;31212;49.734;8.490;2023-03-03T12:53:23;99801.34;;;10.44;46.51
45467;BME280;31212;49.734;8.490;2023-03-03T12:55:56;99879.63;;;11.18;46.08
45467;BME280;31212;49.734;8.490;2023-03-03T12:58:36;99841.31;;;11.38;45.15
45467;BME280;31212;49.734;8.490;2023-03-03T13:01:14;99759.09;;;11.31;44.52
45467;BME280;31212;49.734;8.490;2023-03-03T13:03:51;99815.47;;;11.21;45.35
45467;BME280;31212;49.734;8.490;2023-03-03T13:06:22;99789.72;;;10.98;45.66
45467;BME280;31212;49.734;8.490;2023-03-03T13:09:00;99772.31;;;11.06;45.18
45467;BME280;31212;49.734;8.490;2023-03-03T13:11:43;99782.97;;;10.75;45.72
45467;BME280;31212;49.734;8.490;2023-03-03T13:14:13;99843.50;;;10.82;46.07
45467;BME280;31212;49.734;8.490;2023-03-03T13:16:48;99785.53;;;10.80;45.79
45467;BME280;31212;49.734;8.490;2023-03-03T13:19:19;99810.50;;;10.97;45.35
45467;BME280;31212;49.734;8.490;2023-03-03T13:21:51;99783.13;;;10.54;45.72
45467;BME280;31212;49.734;8.490;2023-03-03T13:24:22;99786.38;;;10.84;45.38
45467;BME280;31212;49.734;8.490;2023-03-03T13:26:57;99750.09;;;10.71;44.79
45467;BME280;31212;49.734;8.490;2023-03-03T13:29:26;99804.69;;;10.60;46.17
45467;BME280;31212;49.734;8.490;2023-03-03T13:31:56;99867.66;;;10.95;46.05